Masset Airport
CZMT : rendu visible

Aérodrome :











RETROUVEZ-NOUS SUR...

 
LOGIN :

S'inscrire | Disclaimer

   EN    FR    IT 

 









Légende :    VFR   VFR Marginal   IFR   IFR Intensif   IFR Très Intensif
Visi : 
Plafond : 
>= 8 km
>= 3000ft
5 à 8 km
1000 à 3000 ft
1500m à 5 km
500 à 1000 ft
800 à 1500m
200 à 500 ft
< 800m
< 200 ft
Symboles :   Orages  Brouillard  Fortes neiges  Fortes précipitations  Vent > 20 kt






- Altitude de l'aérodrome : 25 ft
- Code IATA : ZMT


CZMT - Masset

DERNIER METAR :
  • 030100Z VRB02KT 10SM -SHRA OVC025TCU 10/10 A3010 RMK TCU8 LAST STFD OBS/NEXT 031400 UTC SLP195

METARs EXPIRÉS :
  • 030000Z 00000KT 10SM OVC020TCU 10/10 A3010 RMK TCU8 SLP193
  • 022300Z 11003KT 350V140 10SM OVC025 11/09 A3008 RMK CF8 SLP187

Prévision TAF périmée.
FIR CZVR / Amérique du Nord



MET'MAP, la Météo Aéronautique d'un coup d'oeil ! - Copyright ORBIFLY Décembre 2007 - Disclaimer

ORBIFLY MET'MAP TEAM :

Programmation & Développement : Alexandra Zaïnal
Sur une idée originale de : Baudouin d'Aumeries
Assistance à la programmation : Marc-Olivier Méhu
Soutien technique & logistique : Manuel Goepfert

Contact : metmap@orbifly.com




SOURCES & CREDITS :

   NOAA       Earth
Advisory